createdAt,value
2023-04-16T00:00:32.240Z,13.55
2023-04-16T00:02:59.563Z,13.54
2023-04-16T00:05:27.352Z,13.52
2023-04-16T00:07:54.388Z,13.49
2023-04-16T00:10:21.448Z,13.46
2023-04-16T00:12:48.419Z,13.44
2023-04-16T00:15:15.390Z,13.44
2023-04-16T00:17:42.333Z,13.43
2023-04-16T00:20:10.188Z,13.42
2023-04-16T00:22:37.460Z,13.41
2023-04-16T00:25:04.965Z,13.40
2023-04-16T00:27:31.961Z,13.37
2023-04-16T00:29:59.155Z,13.32
2023-04-16T00:32:26.119Z,13.29
2023-04-16T00:34:53.207Z,13.26
2023-04-16T00:37:20.220Z,13.21
2023-04-16T00:39:47.227Z,13.17
2023-04-16T00:42:16.118Z,13.13
2023-04-16T00:44:43.142Z,13.08
2023-04-16T00:47:10.410Z,13.05
2023-04-16T00:49:37.691Z,13.02
2023-04-16T00:52:04.955Z,13.00
2023-04-16T00:54:34.667Z,12.97
2023-04-16T00:57:03.018Z,12.95
2023-04-16T00:59:31.221Z,12.91
2023-04-16T01:01:58.354Z,12.90
2023-04-16T01:04:26.252Z,12.85
2023-04-16T01:06:53.847Z,12.85
2023-04-16T01:09:20.995Z,12.85
2023-04-16T01:11:47.954Z,12.81
2023-04-16T01:14:15.077Z,12.77
2023-04-16T01:16:42.046Z,12.74
2023-04-16T01:19:09.293Z,12.66
2023-04-16T01:21:36.368Z,12.58
2023-04-16T01:24:06.903Z,12.52
2023-04-16T01:26:38.946Z,12.48
2023-04-16T01:29:06.548Z,12.45
2023-04-16T01:31:33.836Z,12.39
2023-04-16T01:34:09.190Z,12.35
2023-04-16T01:36:36.498Z,12.32
2023-04-16T01:39:04.429Z,12.29
2023-04-16T01:41:32.110Z,12.28
2023-04-16T01:43:59.114Z,12.26
2023-04-16T01:46:32.675Z,12.26
2023-04-16T01:48:59.902Z,12.25
2023-04-16T01:51:27.415Z,12.25
2023-04-16T01:53:55.418Z,12.25
2023-04-16T01:56:22.793Z,12.21
2023-04-16T01:58:50.258Z,12.14
2023-04-16T02:01:19.062Z,12.12
2023-04-16T02:03:47.752Z,12.06
2023-04-16T02:06:15.808Z,11.98
2023-04-16T02:08:45.923Z,11.96
2023-04-16T02:11:16.003Z,11.95
2023-04-16T02:13:43.735Z,11.91
2023-04-16T02:16:13.276Z,11.88
2023-04-16T02:18:52.291Z,11.86
2023-04-16T02:21:21.866Z,11.83
2023-04-16T02:23:51.960Z,11.78
2023-04-16T02:26:23.460Z,11.68
2023-04-16T02:28:51.110Z,11.68
2023-04-16T02:31:22.872Z,11.64
2023-04-16T02:33:50.065Z,11.64
2023-04-16T02:36:17.099Z,11.63
2023-04-16T02:38:44.036Z,11.64
2023-04-16T02:41:11.101Z,11.61
2023-04-16T02:43:38.280Z,11.60
2023-04-16T02:46:05.371Z,11.55
2023-04-16T02:48:32.821Z,11.55
2023-04-16T02:50:59.958Z,11.53
2023-04-16T02:53:27.063Z,11.50
2023-04-16T02:55:55.661Z,11.45
2023-04-16T02:58:25.408Z,11.45
2023-04-16T03:00:54.294Z,11.42
2023-04-16T03:03:21.940Z,11.41
2023-04-16T03:05:49.162Z,11.41
2023-04-16T03:08:16.755Z,11.42
2023-04-16T03:10:43.908Z,11.41
2023-04-16T03:13:10.897Z,11.39
2023-04-16T03:15:38.091Z,11.35
2023-04-16T03:18:05.074Z,11.33
2023-04-16T03:20:32.394Z,11.33
2023-04-16T03:22:59.430Z,11.31
2023-04-16T03:25:26.477Z,11.28
2023-04-16T03:27:53.364Z,11.29
2023-04-16T03:30:20.428Z,11.30
2023-04-16T03:32:47.753Z,11.28
2023-04-16T03:35:15.705Z,11.23
2023-04-16T03:37:42.787Z,11.19
2023-04-16T03:40:10.315Z,11.16
2023-04-16T03:42:37.940Z,11.09
2023-04-16T03:45:06.555Z,11.05
2023-04-16T03:47:33.515Z,11.05
2023-04-16T03:50:03.572Z,11.05
2023-04-16T03:52:30.932Z,11.05
2023-04-16T03:54:57.981Z,11.02
2023-04-16T03:57:27.772Z,11.01
2023-04-16T03:59:59.928Z,10.97
2023-04-16T04:02:31.377Z,10.93
2023-04-16T04:04:59.622Z,10.89
2023-04-16T04:07:26.669Z,10.87
2023-04-16T04:09:53.836Z,10.85
2023-04-16T04:12:21.206Z,10.84
2023-04-16T04:14:48.506Z,10.86
2023-04-16T04:17:15.577Z,10.87
2023-04-16T04:19:54.262Z,10.86
2023-04-16T04:22:28.952Z,10.86
2023-04-16T04:24:55.946Z,10.83
2023-04-16T04:27:23.371Z,10.82
2023-04-16T04:29:50.660Z,10.81
2023-04-16T04:32:18.016Z,10.79
2023-04-16T04:34:45.960Z,10.75
2023-04-16T04:37:13.006Z,10.71
2023-04-16T04:39:40.018Z,10.68
2023-04-16T04:42:07.251Z,10.65
2023-04-16T04:44:34.276Z,10.65
2023-04-16T04:47:01.339Z,10.63
2023-04-16T04:49:28.363Z,10.59
2023-04-16T04:51:55.607Z,10.53
2023-04-16T04:54:24.367Z,10.52
2023-04-16T04:56:53.246Z,10.48
2023-04-16T04:59:21.700Z,10.44
2023-04-16T05:01:49.970Z,10.43
2023-04-16T05:04:17.630Z,10.43
2023-04-16T05:06:44.827Z,10.44
2023-04-16T05:09:12.001Z,10.42
2023-04-16T05:11:41.534Z,10.44
2023-04-16T05:14:08.692Z,10.46
2023-04-16T05:16:39.068Z,10.49
2023-04-16T05:19:06.135Z,10.53
2023-04-16T05:21:33.956Z,10.55
2023-04-16T05:24:00.878Z,10.58
2023-04-16T05:26:27.941Z,10.59
2023-04-16T05:28:56.697Z,10.62
2023-04-16T05:31:24.166Z,10.64
2023-04-16T05:33:51.282Z,10.68
2023-04-16T05:36:18.257Z,10.70
2023-04-16T05:38:45.317Z,10.73
2023-04-16T05:41:12.463Z,10.78
2023-04-16T05:43:39.582Z,10.82
2023-04-16T05:46:06.612Z,10.85
2023-04-16T05:48:33.588Z,10.88
2023-04-16T05:51:02.274Z,10.90
2023-04-16T05:53:29.267Z,10.95
2023-04-16T05:55:56.365Z,10.97
2023-04-16T05:58:24.045Z,11.01
2023-04-16T06:00:52.282Z,11.04
2023-04-16T06:03:19.342Z,11.07
2023-04-16T06:05:46.410Z,11.10
2023-04-16T06:08:13.507Z,11.13
2023-04-16T06:10:40.713Z,11.18
2023-04-16T06:13:07.682Z,11.21
2023-04-16T06:15:34.600Z,11.25
2023-04-16T06:18:01.632Z,11.25
2023-04-16T06:20:28.831Z,11.29
2023-04-16T06:22:56.281Z,11.30
2023-04-16T06:25:23.549Z,11.34
2023-04-16T06:27:50.623Z,11.37
2023-04-16T06:30:17.814Z,11.42
2023-04-16T06:32:44.964Z,11.46
2023-04-16T06:35:12.533Z,11.50
2023-04-16T06:37:39.488Z,11.54
2023-04-16T06:40:07.249Z,11.58
2023-04-16T06:42:34.267Z,11.61
2023-04-16T06:45:01.640Z,11.64
2023-04-16T06:47:28.664Z,11.62
2023-04-16T06:49:55.620Z,11.67
2023-04-16T06:52:22.647Z,11.73
2023-04-16T06:54:49.606Z,11.79
2023-04-16T06:57:17.590Z,11.83
2023-04-16T06:59:44.906Z,11.87
2023-04-16T07:02:12.176Z,11.92
2023-04-16T07:04:39.167Z,11.97
2023-04-16T07:07:06.184Z,12.00
2023-04-16T07:09:33.171Z,12.08
2023-04-16T07:12:00.269Z,12.11
2023-04-16T07:14:27.475Z,12.16
2023-04-16T07:16:54.590Z,12.12
2023-04-16T07:19:21.763Z,12.19
2023-04-16T07:21:52.592Z,12.27
2023-04-16T07:24:20.055Z,12.35
2023-04-16T07:26:47.338Z,12.32
2023-04-16T07:29:14.843Z,12.38
2023-04-16T07:31:42.231Z,12.49
2023-04-16T07:34:09.556Z,12.41
2023-04-16T07:36:36.552Z,12.52
2023-04-16T07:39:05.789Z,12.59
2023-04-16T07:41:33.456Z,12.63
2023-04-16T07:44:00.629Z,12.72
2023-04-16T07:46:33.310Z,12.75
2023-04-16T07:49:10.625Z,12.87
2023-04-16T07:51:37.770Z,12.94
2023-04-16T07:54:04.750Z,13.02
2023-04-16T07:56:32.065Z,13.13
2023-04-16T07:59:07.932Z,13.19
2023-04-16T08:01:42.017Z,13.26
2023-04-16T08:04:09.572Z,13.27
2023-04-16T08:06:36.983Z,13.18
2023-04-16T08:09:04.103Z,13.18
2023-04-16T08:11:31.138Z,13.31
2023-04-16T08:13:58.113Z,13.39
2023-04-16T08:16:25.290Z,13.49
2023-04-16T08:18:52.659Z,13.59
2023-04-16T08:21:19.760Z,13.66
2023-04-16T08:23:46.822Z,13.75
2023-04-16T08:26:14.035Z,13.84
2023-04-16T08:28:41.309Z,13.82
2023-04-16T08:31:08.952Z,13.90
2023-04-16T08:33:36.234Z,13.98
2023-04-16T08:36:03.536Z,14.00
2023-04-16T08:38:30.668Z,14.11
2023-04-16T08:41:03.654Z,14.16
2023-04-16T08:43:34.434Z,14.23
2023-04-16T08:46:07.516Z,14.19
2023-04-16T08:48:35.970Z,14.31
2023-04-16T08:51:03.186Z,14.39
2023-04-16T08:53:44.137Z,14.45
2023-04-16T08:56:14.454Z,14.48
2023-04-16T08:58:42.483Z,14.54
2023-04-16T09:01:11.416Z,14.61
2023-04-16T09:03:38.874Z,14.67
2023-04-16T09:06:07.719Z,14.68
2023-04-16T09:08:36.153Z,14.72
2023-04-16T09:11:04.300Z,14.77
2023-04-16T09:13:34.610Z,14.83
2023-04-16T09:16:01.966Z,14.85
2023-04-16T09:18:29.337Z,14.92
2023-04-16T09:20:57.491Z,14.92
2023-04-16T09:23:25.174Z,14.99
2023-04-16T09:25:52.180Z,15.04
2023-04-16T09:28:46.486Z,15.13
2023-04-16T09:31:18.461Z,15.18
2023-04-16T09:34:07.779Z,15.31
2023-04-16T09:36:36.915Z,15.35
2023-04-16T09:39:04.480Z,15.40
2023-04-16T09:41:36.045Z,15.42
2023-04-16T09:44:05.427Z,15.46
2023-04-16T09:46:45.280Z,15.54
2023-04-16T09:49:17.727Z,15.59
2023-04-16T09:51:48.062Z,15.72
2023-04-16T09:54:15.689Z,15.82
2023-04-16T09:56:46.106Z,15.87
2023-04-16T09:59:20.492Z,15.95
2023-04-16T10:01:49.654Z,15.97
2023-04-16T10:04:21.910Z,16.05
2023-04-16T10:07:07.370Z,16.06
2023-04-16T10:09:38.768Z,16.06
2023-04-16T10:12:07.079Z,16.19
2023-04-16T10:14:34.997Z,16.28
2023-04-16T10:17:04.660Z,16.39
2023-04-16T10:19:32.679Z,16.50
2023-04-16T10:22:00.035Z,16.59
2023-04-16T10:24:28.814Z,16.67
2023-04-16T10:26:56.426Z,16.75
2023-04-16T10:29:24.917Z,16.82
2023-04-16T10:31:53.838Z,16.86
2023-04-16T10:34:22.219Z,16.91
2023-04-16T10:36:52.951Z,16.98
2023-04-16T10:39:25.224Z,17.03
2023-04-16T10:42:11.891Z,17.12
2023-04-16T10:44:44.984Z,17.17
2023-04-16T10:47:14.308Z,17.21
2023-04-16T10:49:43.631Z,17.26
2023-04-16T10:52:13.913Z,17.37
2023-04-16T10:54:41.423Z,17.34
2023-04-16T10:57:16.295Z,17.13
2023-04-16T10:59:44.550Z,17.21
2023-04-16T11:02:19.420Z,17.35
2023-04-16T11:04:49.513Z,17.50
2023-04-16T11:07:19.669Z,17.61
2023-04-16T11:10:05.399Z,17.72
2023-04-16T11:12:32.785Z,17.79
2023-04-16T11:15:06.476Z,17.88
2023-04-16T11:17:41.771Z,17.97
2023-04-16T11:20:19.073Z,18.08
2023-04-16T11:22:48.723Z,18.17
2023-04-16T11:25:31.925Z,18.26
2023-04-16T11:27:59.339Z,18.34
2023-04-16T11:30:34.138Z,18.44
2023-04-16T11:33:12.036Z,18.49
2023-04-16T11:35:41.413Z,18.54
2023-04-16T11:38:08.783Z,18.55
2023-04-16T11:40:36.422Z,18.66
2023-04-16T11:43:14.320Z,18.73
2023-04-16T11:45:59.784Z,18.76
2023-04-16T11:48:46.912Z,18.85
2023-04-16T11:51:14.472Z,18.94
2023-04-16T11:53:56.187Z,19.08
2023-04-16T11:56:29.571Z,19.16
2023-04-16T11:59:29.109Z,19.22
2023-04-16T12:01:56.475Z,19.31
2023-04-16T12:04:27.015Z,19.37
2023-04-16T12:07:13.716Z,19.49
2023-04-16T12:09:44.690Z,19.56
2023-04-16T12:12:32.415Z,19.63
2023-04-16T12:15:04.728Z,19.71
2023-04-16T12:17:34.325Z,19.76
2023-04-16T12:20:07.939Z,19.80
2023-04-16T12:22:40.938Z,19.79
2023-04-16T12:25:12.786Z,19.80
2023-04-16T12:27:43.586Z,19.82
2023-04-16T12:30:11.396Z,19.88
2023-04-16T12:32:38.889Z,19.97
2023-04-16T12:35:06.432Z,20.00
2023-04-16T12:37:33.566Z,20.06
2023-04-16T12:40:05.782Z,20.09
2023-04-16T12:42:37.232Z,20.11
2023-04-16T12:45:06.118Z,20.19
2023-04-16T12:47:33.412Z,20.24
2023-04-16T12:50:01.804Z,20.26
2023-04-16T12:52:40.224Z,20.33
2023-04-16T12:55:07.811Z,20.38
2023-04-16T12:57:35.165Z,20.47
2023-04-16T13:00:02.365Z,20.47
2023-04-16T13:02:29.744Z,20.53
2023-04-16T13:04:57.015Z,20.51
2023-04-16T13:07:26.617Z,20.57
2023-04-16T13:09:53.952Z,20.65
2023-04-16T13:12:21.029Z,20.70
2023-04-16T13:14:47.973Z,20.73
2023-04-16T13:17:16.259Z,20.77
2023-04-16T13:19:43.386Z,20.82
2023-04-16T13:22:10.489Z,20.88
2023-04-16T13:24:38.126Z,20.98
2023-04-16T13:27:06.037Z,21.09
2023-04-16T13:29:33.701Z,21.09
2023-04-16T13:32:01.161Z,21.09
2023-04-16T13:34:28.335Z,21.10
2023-04-16T13:37:03.939Z,21.14
2023-04-16T13:39:31.063Z,21.20
2023-04-16T13:41:58.433Z,21.22
2023-04-16T13:44:25.594Z,21.26
2023-04-16T13:46:53.298Z,20.97
2023-04-16T13:49:20.349Z,21.12
2023-04-16T13:51:47.460Z,21.22
2023-04-16T13:54:14.423Z,21.29
2023-04-16T13:56:41.569Z,21.35
2023-04-16T13:59:09.018Z,21.41
2023-04-16T14:01:36.321Z,21.47
2023-04-16T14:04:06.944Z,21.52
2023-04-16T14:06:34.943Z,21.59
2023-04-16T14:09:02.551Z,21.59
2023-04-16T14:11:29.883Z,21.61
2023-04-16T14:13:56.888Z,21.60
2023-04-16T14:16:24.013Z,21.62
2023-04-16T14:18:52.107Z,21.61
2023-04-16T14:21:19.337Z,21.67
2023-04-16T14:23:46.820Z,21.73
2023-04-16T14:26:14.393Z,21.82
2023-04-16T14:28:42.124Z,21.93
2023-04-16T14:31:10.480Z,22.00
2023-04-16T14:33:37.657Z,22.08
2023-04-16T14:36:05.384Z,22.13
2023-04-16T14:38:32.630Z,22.22
2023-04-16T14:41:00.665Z,22.24
2023-04-16T14:43:28.466Z,22.20
2023-04-16T14:45:59.082Z,22.16
2023-04-16T14:48:26.310Z,22.10
2023-04-16T14:50:53.795Z,22.05
2023-04-16T14:53:20.929Z,22.05
2023-04-16T14:55:48.005Z,22.08
2023-04-16T14:58:15.705Z,22.02
2023-04-16T15:00:42.996Z,22.06
2023-04-16T15:03:10.586Z,22.10
2023-04-16T15:05:37.979Z,22.07
2023-04-16T15:08:06.285Z,21.68
2023-04-16T15:10:33.426Z,21.67
2023-04-16T15:13:00.673Z,21.46
2023-04-16T15:15:27.784Z,21.40
2023-04-16T15:17:57.012Z,21.37
2023-04-16T15:20:24.606Z,21.33
2023-04-16T15:22:53.493Z,21.24
2023-04-16T15:25:20.630Z,21.20
2023-04-16T15:27:47.635Z,21.13
2023-04-16T15:30:14.918Z,21.07
2023-04-16T15:32:45.059Z,21.04
2023-04-16T15:35:20.029Z,21.01
2023-04-16T15:37:52.342Z,20.96
2023-04-16T15:40:20.596Z,20.94
2023-04-16T15:42:51.905Z,20.93
2023-04-16T15:45:19.135Z,20.89
2023-04-16T15:47:51.094Z,20.86
2023-04-16T15:50:19.845Z,20.83
2023-04-16T15:52:47.798Z,20.86
2023-04-16T15:55:17.617Z,20.84
2023-04-16T15:57:45.023Z,20.94
2023-04-16T16:00:18.985Z,20.88
2023-04-16T16:02:47.313Z,20.81
2023-04-16T16:05:18.345Z,20.88
2023-04-16T16:07:45.666Z,20.96
2023-04-16T16:10:13.599Z,21.01
2023-04-16T16:12:41.096Z,21.08
2023-04-16T16:15:09.244Z,21.12
2023-04-16T16:17:39.534Z,21.18
2023-04-16T16:20:10.524Z,21.16
2023-04-16T16:22:38.398Z,21.13
2023-04-16T16:25:07.758Z,21.10
2023-04-16T16:27:36.366Z,21.02
2023-04-16T16:30:08.748Z,20.95
2023-04-16T16:32:40.963Z,20.90
2023-04-16T16:35:11.728Z,20.90
2023-04-16T16:37:38.848Z,20.90
2023-04-16T16:40:07.692Z,20.87
2023-04-16T16:42:35.278Z,20.87
2023-04-16T16:45:06.289Z,20.87
2023-04-16T16:47:33.495Z,20.80
2023-04-16T16:50:02.753Z,20.85
2023-04-16T16:52:31.346Z,20.81
2023-04-16T16:54:58.371Z,20.75
2023-04-16T16:57:25.745Z,20.68
2023-04-16T16:59:54.441Z,20.62
2023-04-16T17:02:21.909Z,20.61
2023-04-16T17:04:48.955Z,20.59
2023-04-16T17:07:15.997Z,20.56
2023-04-16T17:09:43.080Z,20.48
2023-04-16T17:12:13.640Z,20.42
2023-04-16T17:14:41.166Z,20.39
2023-04-16T17:17:08.089Z,20.32
2023-04-16T17:19:35.394Z,20.24
2023-04-16T17:22:03.333Z,20.17
2023-04-16T17:24:32.586Z,20.05
2023-04-16T17:27:00.039Z,20.03
2023-04-16T17:29:28.156Z,19.96
2023-04-16T17:31:55.773Z,19.90
2023-04-16T17:34:23.479Z,19.85
2023-04-16T17:36:50.784Z,19.73
2023-04-16T17:39:18.246Z,19.68
2023-04-16T17:41:46.816Z,19.60
2023-04-16T17:44:14.505Z,19.55
2023-04-16T17:46:41.632Z,19.54
2023-04-16T17:49:08.623Z,19.41
2023-04-16T17:51:35.624Z,19.31
2023-04-16T17:54:03.501Z,19.31
2023-04-16T17:56:30.463Z,19.28
2023-04-16T17:58:57.649Z,19.19
2023-04-16T18:01:25.781Z,19.10
2023-04-16T18:03:53.550Z,19.03
2023-04-16T18:06:21.449Z,19.01
2023-04-16T18:08:49.083Z,18.95
2023-04-16T18:11:16.214Z,18.93
2023-04-16T18:13:43.683Z,18.87
2023-04-16T18:16:16.630Z,18.85
2023-04-16T18:18:45.863Z,18.80
2023-04-16T18:21:13.019Z,18.75
2023-04-16T18:23:40.089Z,18.70
2023-04-16T18:26:18.226Z,18.59
2023-04-16T18:28:47.438Z,18.46
2023-04-16T18:31:14.523Z,18.48
2023-04-16T18:33:55.779Z,18.44
2023-04-16T18:36:26.669Z,18.24
2023-04-16T18:39:00.807Z,18.10
2023-04-16T18:41:29.877Z,18.18
2023-04-16T18:43:57.375Z,18.21
2023-04-16T18:46:25.561Z,17.98
2023-04-16T18:48:52.626Z,17.93
2023-04-16T18:51:19.602Z,17.88
2023-04-16T18:53:46.709Z,17.85
2023-04-16T18:56:13.811Z,17.77
2023-04-16T18:58:40.786Z,17.69
2023-04-16T19:01:11.479Z,17.62
2023-04-16T19:03:39.280Z,17.52
2023-04-16T19:06:07.281Z,17.49
2023-04-16T19:08:34.691Z,17.43
2023-04-16T19:11:02.242Z,17.40
2023-04-16T19:13:30.527Z,17.36
2023-04-16T19:16:02.068Z,17.36
2023-04-16T19:18:29.310Z,17.35
2023-04-16T19:21:03.652Z,17.31
2023-04-16T19:23:31.246Z,17.28
2023-04-16T19:25:59.385Z,17.26
2023-04-16T19:28:26.703Z,17.26
2023-04-16T19:30:55.016Z,17.25
2023-04-16T19:33:22.365Z,17.15
2023-04-16T19:35:52.206Z,17.18
2023-04-16T19:38:20.204Z,17.17
2023-04-16T19:40:48.881Z,17.18
2023-04-16T19:43:15.960Z,17.11
2023-04-16T19:45:45.446Z,17.09
2023-04-16T19:48:13.042Z,17.08
2023-04-16T19:50:41.329Z,17.00
2023-04-16T19:53:09.010Z,17.01
2023-04-16T19:55:37.105Z,16.90
2023-04-16T19:58:08.391Z,16.91
2023-04-16T20:00:43.175Z,16.88
2023-04-16T20:03:10.457Z,16.81
2023-04-16T20:05:42.005Z,16.83
2023-04-16T20:08:09.297Z,16.83
2023-04-16T20:10:36.284Z,16.87
2023-04-16T20:13:03.342Z,16.87
2023-04-16T20:15:30.306Z,16.85
2023-04-16T20:17:59.747Z,16.83
2023-04-16T20:20:26.796Z,16.80
2023-04-16T20:22:55.436Z,16.79
2023-04-16T20:25:22.658Z,16.79
2023-04-16T20:27:51.820Z,16.80
2023-04-16T20:30:19.333Z,16.80
2023-04-16T20:32:46.384Z,16.75
2023-04-16T20:35:13.407Z,16.74
2023-04-16T20:37:42.299Z,16.71
2023-04-16T20:40:10.987Z,16.68
2023-04-16T20:42:38.234Z,16.61
2023-04-16T20:45:06.058Z,16.58
2023-04-16T20:47:35.859Z,16.47
2023-04-16T20:50:03.932Z,16.45
2023-04-16T20:52:30.980Z,16.47
2023-04-16T20:54:58.048Z,16.48
2023-04-16T20:57:25.884Z,16.46
2023-04-16T20:59:53.614Z,16.45
2023-04-16T21:02:23.722Z,16.47
2023-04-16T21:04:51.177Z,16.47
2023-04-16T21:07:18.610Z,16.43
2023-04-16T21:09:47.095Z,16.41
2023-04-16T21:12:14.105Z,16.39
2023-04-16T21:14:41.214Z,16.38
2023-04-16T21:17:09.589Z,16.39
2023-04-16T21:19:36.653Z,16.34
2023-04-16T21:22:03.697Z,16.34
2023-04-16T21:24:32.301Z,16.33
2023-04-16T21:27:09.605Z,16.31
2023-04-16T21:29:40.906Z,16.25
2023-04-16T21:32:07.988Z,16.14
2023-04-16T21:34:34.978Z,15.92
2023-04-16T21:37:02.032Z,15.83
2023-04-16T21:39:31.063Z,15.70
2023-04-16T21:41:58.128Z,15.61
2023-04-16T21:44:25.339Z,15.56
2023-04-16T21:46:52.454Z,15.39
2023-04-16T21:49:19.692Z,15.38
2023-04-16T21:51:46.681Z,15.37
2023-04-16T21:54:13.712Z,15.31
2023-04-16T21:56:40.802Z,15.28
2023-04-16T21:59:07.825Z,15.23
2023-04-16T22:01:36.159Z,15.15
2023-04-16T22:04:04.022Z,15.07
2023-04-16T22:06:31.276Z,14.94
2023-04-16T22:08:59.595Z,14.96
2023-04-16T22:11:26.521Z,14.89
2023-04-16T22:13:57.744Z,14.88
2023-04-16T22:16:25.027Z,14.82
2023-04-16T22:18:52.092Z,14.76
2023-04-16T22:21:19.138Z,14.66
2023-04-16T22:23:46.728Z,14.61
2023-04-16T22:26:13.896Z,14.62
2023-04-16T22:28:40.853Z,14.61
2023-04-16T22:31:08.520Z,14.60
2023-04-16T22:33:35.622Z,14.56
2023-04-16T22:36:02.699Z,14.52
2023-04-16T22:38:29.656Z,14.51
2023-04-16T22:40:56.642Z,14.44
2023-04-16T22:43:23.723Z,14.41
2023-04-16T22:46:01.047Z,14.36
2023-04-16T22:48:28.409Z,14.34
2023-04-16T22:50:55.327Z,14.35
2023-04-16T22:53:22.304Z,14.32
2023-04-16T22:55:49.208Z,14.29
2023-04-16T22:58:17.104Z,14.27
2023-04-16T23:00:44.334Z,14.24
2023-04-16T23:03:11.733Z,14.22
2023-04-16T23:05:38.742Z,14.21
2023-04-16T23:08:06.516Z,14.21
2023-04-16T23:10:33.744Z,14.19
2023-04-16T23:13:00.838Z,14.16
2023-04-16T23:15:28.008Z,14.11
2023-04-16T23:17:54.976Z,14.08
2023-04-16T23:20:22.683Z,14.02
2023-04-16T23:22:49.715Z,14.01
2023-04-16T23:25:18.201Z,13.98
2023-04-16T23:27:45.186Z,13.95
2023-04-16T23:30:12.625Z,13.94
2023-04-16T23:32:40.681Z,13.90
2023-04-16T23:35:09.839Z,13.88
2023-04-16T23:37:37.033Z,13.87
2023-04-16T23:40:04.963Z,13.86
2023-04-16T23:42:31.993Z,13.83
2023-04-16T23:44:59.084Z,13.79
2023-04-16T23:47:26.340Z,13.76
2023-04-16T23:49:53.320Z,13.72
2023-04-16T23:52:20.635Z,13.69
2023-04-16T23:54:47.792Z,13.67
2023-04-16T23:57:15.246Z,13.65
2023-04-16T23:59:42.279Z,13.64
